AirNav   ProFlight Series 2 Aviation Headset
 
 784 users online  

3MI3 Zayti Field Heliport
Novi, Michigan, USA

GOING TO NOVI?


FAA INFORMATION EFFECTIVE 18 JUNE 2020

Location

FAA Identifier: 3MI3
Lat/Long: 42-26-24.8000N 083-30-57.1000W
42-26.413333N 083-30.951667W
42.4402222,-83.5158611
(estimated)
Elevation: 901 ft. / 275 m (estimated)
From city: 5 miles SW of NOVI, MI
Time zone: UTC -4 (UTC -5 during Standard Time)
Zip code: 48374

Heliport Operations

Heliport use: Private use. Permission required prior to landing
Activation date: 03/2007
Control tower: no
ARTCC: CLEVELAND CENTER
FSS: LANSING FLIGHT SERVICE STATION
Attendance: UNATNDD
Wind indicator: yes
Segmented circle: no

Heliport Communications

WX ASOS at YIP (12 nm S): PHONE 734-961-6843
WX ASOS at PTK (14 nm N): 125.025 (248-886-8551)
WX ASOS at DTW (15 nm SE): 133.675 (734-955-5015)
WX AWOS-3 at VLL (16 nm E): 119.475 (248-288-4649)
WX ASOS at ARB (17 nm SW): 134.55 (734-668-7173)

Nearby radio navigation aids

VOR radial/distance  VOR name  Freq  Var
SVMr064/3.9SALEM VORTAC114.3003W
DXOr340/15.1DETROIT VOR/DME113.4006W
CRLr357/23.7CARLETON VOR/DME115.7003W
FNTr168/33.2FLINT VORTAC116.9006W

 
NDB name  Hdg/Dist  Freq  Var  ID
GROSSE ILE329/26.041907WRYS .-. -.-- ...
TECUMSEH040/29.423906WTCU - -.-. ..-

Heliport Services

Runway Information

Helipad H1

Dimensions: 40 x 30 ft. / 12 x 9 m
Surface: turf
Traffic pattern: leftleft

Heliport Ownership and Management from official FAA records

Ownership: Privately-owned
Owner: MARK ZAYTI
21321 BECK RD.
NORTHVILLE, MI 48167
Phone 248-330-9079
Manager: MARK ZAYTI
21321 BECK RD.
NORTHVILLE, MI 48167
Phone 248-330-9079

Additional Remarks

FOR CD CTC DETROIT APCH AT 800-499-8181.

Instrument Procedures

There are no published instrument procedures at 3MI3.

Some nearby airports with instrument procedures:

Y47 - Oakland Southwest Airport (6 nm NW)
1D2 - Canton-Plymouth-Mettetal Airport (6 nm SE)
KYIP - Willow Run Airport (12 nm S)
KPTK - Oakland County International Airport (14 nm N)
KDTW - Detroit Metropolitan Wayne County Airport (15 nm SE)
KVLL - Oakland/Troy Airport (16 nm NE)
KARB - Ann Arbor Municipal Airport (17 nm SW)
 
Loc | Ops | Rwys | IFR | FBO | Links
Com | Nav | Svcs | Stats | Notes
Area around 3MI3 (Zayti Field Heliport)
 
Road maps at: MapQuest Bing Google
 
Aerial photo
No photo
 
Sectional chart

 
Airport distance calculator
Flying to Zayti Field Heliport? Find the distance to fly.

From to 3MI3

Sunrise and sunset
Times for 14-Jul-2020
 Local
(UTC-4)
 Zulu
(UTC)
Morning civil twilight05:3809:38
Sunrise06:1110:11
Sunset21:0901:09
Evening civil twilight21:4201:42

Current date and time
Zulu (UTC)  15-Jul-2020 03:32:27
Local (UTC-4)  14-Jul-2020 23:32:27
 
METAR
KYIP 
12nm S 
150253Z 14008KT 10SM CLR 24/17 A3008 RMK AO2 SLP177 T02390172 50003
KPTK 
14nm N 
150253Z 17003KT 10SM FEW200 SCT250 23/14 A3007 RMK AO2 SLP177 T02330139 51006 $
KDTW 
15nm SE 
150253Z 14005KT 10SM SCT220 23/17 A3008 RMK AO2 SLP181 T02330167 50004
KVLL 
16nm NE 
150315Z AUTO 16004KT 10SM CLR 24/15 A3010 RMK AO2 T02370151
KARB 
17nm SW 
734-668-7173
150253Z AUTO 15004KT 10SM CLR 22/17 A3007 RMK AO2 SLP178 T02170167 50004
KDET 
22nm E 
150253Z 16005KT 10SM CLR 23/16 A3008 RMK AO2 SLP181 T02330161 50003
KOZW 
23nm NW 
150315Z AUTO 15007KT 10SM CLR 22/17 A3006 RMK AO2 T02190168
TAF
KYIP 
12nm S 
141727Z 1418/1518 20005KT P6SM SCT060 SCT250 TEMPO 1418/1421 BKN050 FM150000 15003KT P6SM SCT250 FM151400 19007KT P6SM SCT250
KPTK 
14nm N 
141727Z 1418/1518 21005KT P6SM SCT060 SCT250 TEMPO 1418/1421 BKN050 FM150000 15003KT P6SM SCT250 FM151400 19007KT P6SM SCT250
KDTW 
15nm SE 
142046Z 1421/1524 20005KT P6SM SCT060 BKN250 FM150000 15003KT P6SM SCT250 FM151400 19007KT P6SM SCT250
NOTAMs
Click for the latest NOTAMs
NOTAMs are issued by the DoD/FAA and will open in a separate window not controlled by AirNav.

 

 
 

Would you like to see your business listed on this page?

 If your business provides an interesting product or service to pilots, flight crews, aircraft, or users of the Zayti Field Heliport, you should consider listing it here.  To start the listing process, click on the button below
 
Add a business
 

Other Pages about Zayti Field Heliport

Update a link
 
Copyright © AirNav, LLC. All rights reserved. Privacy Policy  Contact